sensor_id;sensor_type;location;lat;lon;timestamp;P1;durP1;ratioP1;P2;durP2;ratioP2
41061;SDS011;26812;42.662;23.352;2023-06-26T00:01:11;15.73;;;9.80;;
41061;SDS011;26812;42.662;23.352;2023-06-26T00:03:36;17.00;;;10.88;;
41061;SDS011;26812;42.662;23.352;2023-06-26T00:06:02;18.63;;;12.13;;
41061;SDS011;26812;42.662;23.352;2023-06-26T00:08:27;17.65;;;10.45;;
41061;SDS011;26812;42.662;23.352;2023-06-26T00:10:53;17.58;;;10.98;;
41061;SDS011;26812;42.662;23.352;2023-06-26T00:13:19;15.98;;;10.20;;
41061;SDS011;26812;42.662;23.352;2023-06-26T00:15:44;15.73;;;11.25;;
41061;SDS011;26812;42.662;23.352;2023-06-26T00:18:10;16.20;;;10.88;;
41061;SDS011;26812;42.662;23.352;2023-06-26T00:20:35;15.35;;;10.45;;
41061;SDS011;26812;42.662;23.352;2023-06-26T00:23:01;17.13;;;9.98;;
41061;SDS011;26812;42.662;23.352;2023-06-26T00:25:26;17.58;;;11.07;;
41061;SDS011;26812;42.662;23.352;2023-06-26T00:27:51;14.90;;;10.93;;
41061;SDS011;26812;42.662;23.352;2023-06-26T00:30:17;14.15;;;10.18;;
41061;SDS011;26812;42.662;23.352;2023-06-26T00:32:42;14.75;;;10.02;;
41061;SDS011;26812;42.662;23.352;2023-06-26T00:35:08;14.50;;;10.13;;
41061;SDS011;26812;42.662;23.352;2023-06-26T00:37:33;13.02;;;9.52;;
41061;SDS011;26812;42.662;23.352;2023-06-26T00:39:59;15.13;;;9.27;;
41061;SDS011;26812;42.662;23.352;2023-06-26T00:42:24;13.43;;;9.15;;
41061;SDS011;26812;42.662;23.352;2023-06-26T00:44:49;14.00;;;10.10;;
41061;SDS011;26812;42.662;23.352;2023-06-26T00:47:15;11.20;;;9.07;;
41061;SDS011;26812;42.662;23.352;2023-06-26T00:49:42;14.77;;;9.35;;
41061;SDS011;26812;42.662;23.352;2023-06-26T00:52:07;12.80;;;9.85;;
41061;SDS011;26812;42.662;23.352;2023-06-26T00:54:33;14.10;;;9.40;;
41061;SDS011;26812;42.662;23.352;2023-06-26T00:56:59;14.15;;;8.93;;
41061;SDS011;26812;42.662;23.352;2023-06-26T00:59:24;12.40;;;8.90;;
41061;SDS011;26812;42.662;23.352;2023-06-26T01:01:50;13.02;;;8.18;;
41061;SDS011;26812;42.662;23.352;2023-06-26T01:04:15;11.77;;;8.48;;
41061;SDS011;26812;42.662;23.352;2023-06-26T01:06:44;12.32;;;9.50;;
41061;SDS011;26812;42.662;23.352;2023-06-26T01:09:15;9.90;;;8.27;;
41061;SDS011;26812;42.662;23.352;2023-06-26T01:11:42;10.23;;;8.18;;
41061;SDS011;26812;42.662;23.352;2023-06-26T01:14:07;13.25;;;8.45;;
41061;SDS011;26812;42.662;23.352;2023-06-26T01:16:32;10.80;;;8.70;;
41061;SDS011;26812;42.662;23.352;2023-06-26T01:19:00;9.23;;;7.47;;
41061;SDS011;26812;42.662;23.352;2023-06-26T01:21:25;12.07;;;8.57;;
41061;SDS011;26812;42.662;23.352;2023-06-26T01:26:39;11.70;;;7.88;;
41061;SDS011;26812;42.662;23.352;2023-06-26T01:29:07;10.80;;;8.40;;
41061;SDS011;26812;42.662;23.352;2023-06-26T01:31:35;12.80;;;9.20;;
41061;SDS011;26812;42.662;23.352;2023-06-26T01:34:01;13.80;;;8.40;;
41061;SDS011;26812;42.662;23.352;2023-06-26T01:36:27;10.93;;;7.53;;
41061;SDS011;26812;42.662;23.352;2023-06-26T01:38:53;12.20;;;7.85;;
41061;SDS011;26812;42.662;23.352;2023-06-26T01:41:18;11.38;;;7.47;;
41061;SDS011;26812;42.662;23.352;2023-06-26T01:46:21;11.63;;;8.38;;
41061;SDS011;26812;42.662;23.352;2023-06-26T01:51:31;11.32;;;8.18;;
41061;SDS011;26812;42.662;23.352;2023-06-26T01:54:00;10.48;;;8.00;;
41061;SDS011;26812;42.662;23.352;2023-06-26T01:56:28;13.10;;;9.55;;
41061;SDS011;26812;42.662;23.352;2023-06-26T01:58:54;13.93;;;8.93;;
41061;SDS011;26812;42.662;23.352;2023-06-26T02:01:20;11.80;;;8.25;;
41061;SDS011;26812;42.662;23.352;2023-06-26T02:03:47;14.27;;;8.75;;
41061;SDS011;26812;42.662;23.352;2023-06-26T02:06:13;12.70;;;8.73;;
41061;SDS011;26812;42.662;23.352;2023-06-26T02:08:39;11.45;;;8.48;;
41061;SDS011;26812;42.662;23.352;2023-06-26T02:11:05;10.63;;;8.23;;
41061;SDS011;26812;42.662;23.352;2023-06-26T02:13:30;10.98;;;8.13;;
41061;SDS011;26812;42.662;23.352;2023-06-26T02:15:55;11.25;;;8.45;;
41061;SDS011;26812;42.662;23.352;2023-06-26T02:18:22;11.70;;;8.73;;
41061;SDS011;26812;42.662;23.352;2023-06-26T02:20:48;11.55;;;8.85;;
41061;SDS011;26812;42.662;23.352;2023-06-26T02:23:14;10.70;;;8.13;;
41061;SDS011;26812;42.662;23.352;2023-06-26T02:25:39;11.75;;;9.05;;
41061;SDS011;26812;42.662;23.352;2023-06-26T02:28:05;13.48;;;9.00;;
41061;SDS011;26812;42.662;23.352;2023-06-26T02:30:30;13.38;;;9.45;;
41061;SDS011;26812;42.662;23.352;2023-06-26T02:32:55;14.70;;;9.68;;
41061;SDS011;26812;42.662;23.352;2023-06-26T02:35:21;13.75;;;10.50;;
41061;SDS011;26812;42.662;23.352;2023-06-26T02:37:46;13.07;;;9.85;;
41061;SDS011;26812;42.662;23.352;2023-06-26T02:40:11;10.65;;;8.95;;
41061;SDS011;26812;42.662;23.352;2023-06-26T02:42:37;13.98;;;9.40;;
41061;SDS011;26812;42.662;23.352;2023-06-26T02:45:02;13.75;;;10.43;;
41061;SDS011;26812;42.662;23.352;2023-06-26T02:47:28;11.57;;;9.00;;
41061;SDS011;26812;42.662;23.352;2023-06-26T02:49:53;13.75;;;9.93;;
41061;SDS011;26812;42.662;23.352;2023-06-26T02:52:18;13.82;;;9.98;;
41061;SDS011;26812;42.662;23.352;2023-06-26T02:54:44;12.60;;;9.43;;
41061;SDS011;26812;42.662;23.352;2023-06-26T02:57:09;12.70;;;10.50;;
41061;SDS011;26812;42.662;23.352;2023-06-26T02:59:35;14.85;;;10.38;;
41061;SDS011;26812;42.662;23.352;2023-06-26T03:02:00;14.60;;;11.02;;
41061;SDS011;26812;42.662;23.352;2023-06-26T03:04:26;15.60;;;11.57;;
41061;SDS011;26812;42.662;23.352;2023-06-26T03:06:51;13.90;;;10.35;;
41061;SDS011;26812;42.662;23.352;2023-06-26T03:09:16;13.70;;;10.43;;
41061;SDS011;26812;42.662;23.352;2023-06-26T03:11:42;15.55;;;10.13;;
41061;SDS011;26812;42.662;23.352;2023-06-26T03:14:08;15.82;;;10.20;;
41061;SDS011;26812;42.662;23.352;2023-06-26T03:16:33;13.80;;;10.18;;
41061;SDS011;26812;42.662;23.352;2023-06-26T03:18:59;16.98;;;12.20;;
41061;SDS011;26812;42.662;23.352;2023-06-26T03:21:24;15.45;;;11.57;;
41061;SDS011;26812;42.662;23.352;2023-06-26T03:23:49;12.90;;;10.45;;
41061;SDS011;26812;42.662;23.352;2023-06-26T03:26:15;13.75;;;10.88;;
41061;SDS011;26812;42.662;23.352;2023-06-26T03:28:40;16.75;;;11.18;;
41061;SDS011;26812;42.662;23.352;2023-06-26T03:31:07;14.27;;;11.80;;
41061;SDS011;26812;42.662;23.352;2023-06-26T03:33:32;16.60;;;11.52;;
41061;SDS011;26812;42.662;23.352;2023-06-26T03:35:58;14.82;;;10.85;;
41061;SDS011;26812;42.662;23.352;2023-06-26T03:38:24;15.60;;;10.80;;
41061;SDS011;26812;42.662;23.352;2023-06-26T03:40:50;16.52;;;12.05;;
41061;SDS011;26812;42.662;23.352;2023-06-26T03:43:16;18.83;;;11.27;;
41061;SDS011;26812;42.662;23.352;2023-06-26T03:45:41;16.67;;;12.60;;
41061;SDS011;26812;42.662;23.352;2023-06-26T03:48:07;16.52;;;12.18;;
41061;SDS011;26812;42.662;23.352;2023-06-26T03:50:33;14.95;;;11.63;;
41061;SDS011;26812;42.662;23.352;2023-06-26T03:52:58;14.23;;;10.68;;
41061;SDS011;26812;42.662;23.352;2023-06-26T03:55:24;17.58;;;10.88;;
41061;SDS011;26812;42.662;23.352;2023-06-26T03:57:49;16.52;;;11.40;;
41061;SDS011;26812;42.662;23.352;2023-06-26T04:00:15;22.23;;;12.10;;
41061;SDS011;26812;42.662;23.352;2023-06-26T04:02:41;14.80;;;11.45;;
41061;SDS011;26812;42.662;23.352;2023-06-26T04:05:06;17.08;;;12.00;;
41061;SDS011;26812;42.662;23.352;2023-06-26T04:07:31;15.70;;;11.70;;
41061;SDS011;26812;42.662;23.352;2023-06-26T04:09:57;15.82;;;11.75;;
41061;SDS011;26812;42.662;23.352;2023-06-26T04:12:23;16.25;;;11.63;;
41061;SDS011;26812;42.662;23.352;2023-06-26T04:14:48;16.80;;;12.82;;
41061;SDS011;26812;42.662;23.352;2023-06-26T04:17:14;15.43;;;11.50;;
41061;SDS011;26812;42.662;23.352;2023-06-26T04:19:39;15.73;;;12.15;;
41061;SDS011;26812;42.662;23.352;2023-06-26T04:22:04;15.38;;;11.20;;
41061;SDS011;26812;42.662;23.352;2023-06-26T04:24:30;16.17;;;11.13;;
41061;SDS011;26812;42.662;23.352;2023-06-26T04:26:55;14.40;;;10.35;;
41061;SDS011;26812;42.662;23.352;2023-06-26T04:29:24;16.70;;;11.57;;
41061;SDS011;26812;42.662;23.352;2023-06-26T04:31:52;14.68;;;10.82;;
41061;SDS011;26812;42.662;23.352;2023-06-26T04:34:17;13.95;;;10.52;;
41061;SDS011;26812;42.662;23.352;2023-06-26T04:36:43;19.60;;;11.75;;
41061;SDS011;26812;42.662;23.352;2023-06-26T04:39:13;12.90;;;9.77;;
41061;SDS011;26812;42.662;23.352;2023-06-26T04:41:40;16.25;;;10.85;;
41061;SDS011;26812;42.662;23.352;2023-06-26T04:44:05;14.57;;;10.23;;
41061;SDS011;26812;42.662;23.352;2023-06-26T04:46:31;13.57;;;10.75;;
41061;SDS011;26812;42.662;23.352;2023-06-26T04:48:56;12.80;;;9.40;;
41061;SDS011;26812;42.662;23.352;2023-06-26T04:51:23;15.20;;;10.70;;
41061;SDS011;26812;42.662;23.352;2023-06-26T04:53:49;16.00;;;10.05;;
41061;SDS011;26812;42.662;23.352;2023-06-26T04:56:15;15.20;;;11.27;;
41061;SDS011;26812;42.662;23.352;2023-06-26T04:58:40;13.65;;;10.73;;
41061;SDS011;26812;42.662;23.352;2023-06-26T05:01:05;14.38;;;10.80;;
41061;SDS011;26812;42.662;23.352;2023-06-26T05:03:31;14.73;;;10.75;;
41061;SDS011;26812;42.662;23.352;2023-06-26T05:05:57;14.55;;;10.80;;
41061;SDS011;26812;42.662;23.352;2023-06-26T05:08:23;13.35;;;10.35;;
41061;SDS011;26812;42.662;23.352;2023-06-26T05:10:51;14.00;;;10.70;;
41061;SDS011;26812;42.662;23.352;2023-06-26T05:13:18;15.43;;;11.38;;
41061;SDS011;26812;42.662;23.352;2023-06-26T05:15:44;14.23;;;10.63;;
41061;SDS011;26812;42.662;23.352;2023-06-26T05:18:10;15.60;;;10.65;;
41061;SDS011;26812;42.662;23.352;2023-06-26T05:20:36;14.60;;;10.65;;
41061;SDS011;26812;42.662;23.352;2023-06-26T05:23:02;14.15;;;11.02;;
41061;SDS011;26812;42.662;23.352;2023-06-26T05:25:28;16.50;;;10.40;;
41061;SDS011;26812;42.662;23.352;2023-06-26T05:27:55;14.60;;;10.50;;
41061;SDS011;26812;42.662;23.352;2023-06-26T05:30:21;13.55;;;10.73;;
41061;SDS011;26812;42.662;23.352;2023-06-26T05:32:47;13.43;;;10.13;;
41061;SDS011;26812;42.662;23.352;2023-06-26T05:35:13;15.20;;;10.48;;
41061;SDS011;26812;42.662;23.352;2023-06-26T05:37:39;14.07;;;10.95;;
41061;SDS011;26812;42.662;23.352;2023-06-26T05:40:06;12.63;;;9.32;;
41061;SDS011;26812;42.662;23.352;2023-06-26T05:42:33;14.27;;;10.13;;
41061;SDS011;26812;42.662;23.352;2023-06-26T05:44:59;13.50;;;10.05;;
41061;SDS011;26812;42.662;23.352;2023-06-26T05:47:24;13.40;;;10.20;;
41061;SDS011;26812;42.662;23.352;2023-06-26T05:49:49;15.93;;;10.52;;
41061;SDS011;26812;42.662;23.352;2023-06-26T05:52:15;15.05;;;10.20;;
41061;SDS011;26812;42.662;23.352;2023-06-26T05:54:40;13.77;;;9.80;;
41061;SDS011;26812;42.662;23.352;2023-06-26T05:57:06;15.60;;;9.63;;
41061;SDS011;26812;42.662;23.352;2023-06-26T05:59:32;13.30;;;10.05;;
41061;SDS011;26812;42.662;23.352;2023-06-26T06:01:57;13.88;;;9.38;;
41061;SDS011;26812;42.662;23.352;2023-06-26T06:04:23;10.45;;;9.13;;
41061;SDS011;26812;42.662;23.352;2023-06-26T06:06:48;14.50;;;10.65;;
41061;SDS011;26812;42.662;23.352;2023-06-26T06:09:14;13.73;;;9.35;;
41061;SDS011;26812;42.662;23.352;2023-06-26T06:14:23;11.48;;;9.65;;
41061;SDS011;26812;42.662;23.352;2023-06-26T06:17:08;12.82;;;8.90;;
41061;SDS011;26812;42.662;23.352;2023-06-26T06:19:34;13.38;;;9.30;;
41061;SDS011;26812;42.662;23.352;2023-06-26T06:21:59;11.30;;;9.82;;
41061;SDS011;26812;42.662;23.352;2023-06-26T06:24:27;11.35;;;9.45;;
41061;SDS011;26812;42.662;23.352;2023-06-26T06:26:52;11.38;;;8.93;;
41061;SDS011;26812;42.662;23.352;2023-06-26T06:29:18;14.65;;;9.93;;
41061;SDS011;26812;42.662;23.352;2023-06-26T06:31:44;10.65;;;9.23;;
41061;SDS011;26812;42.662;23.352;2023-06-26T06:34:10;14.85;;;11.10;;
41061;SDS011;26812;42.662;23.352;2023-06-26T06:36:35;15.73;;;10.75;;
41061;SDS011;26812;42.662;23.352;2023-06-26T06:39:03;13.38;;;9.80;;
41061;SDS011;26812;42.662;23.352;2023-06-26T06:41:29;14.18;;;9.50;;
41061;SDS011;26812;42.662;23.352;2023-06-26T06:43:54;12.40;;;8.95;;
41061;SDS011;26812;42.662;23.352;2023-06-26T06:46:20;12.25;;;9.70;;
41061;SDS011;26812;42.662;23.352;2023-06-26T06:48:45;12.38;;;8.02;;
41061;SDS011;26812;42.662;23.352;2023-06-26T06:51:12;10.25;;;8.68;;
41061;SDS011;26812;42.662;23.352;2023-06-26T06:53:37;11.63;;;9.32;;
41061;SDS011;26812;42.662;23.352;2023-06-26T06:56:03;13.18;;;8.60;;
41061;SDS011;26812;42.662;23.352;2023-06-26T06:58:28;11.02;;;9.68;;
41061;SDS011;26812;42.662;23.352;2023-06-26T07:00:54;12.20;;;8.60;;
41061;SDS011;26812;42.662;23.352;2023-06-26T07:03:19;11.07;;;8.82;;
41061;SDS011;26812;42.662;23.352;2023-06-26T07:05:46;10.07;;;8.05;;
41061;SDS011;26812;42.662;23.352;2023-06-26T07:08:11;9.27;;;7.43;;
41061;SDS011;26812;42.662;23.352;2023-06-26T07:10:37;9.52;;;7.40;;
41061;SDS011;26812;42.662;23.352;2023-06-26T07:13:02;11.90;;;8.27;;
41061;SDS011;26812;42.662;23.352;2023-06-26T07:15:28;10.32;;;7.88;;
41061;SDS011;26812;42.662;23.352;2023-06-26T07:17:53;11.48;;;8.13;;
41061;SDS011;26812;42.662;23.352;2023-06-26T07:20:18;8.02;;;6.95;;
41061;SDS011;26812;42.662;23.352;2023-06-26T07:22:44;10.25;;;7.68;;
41061;SDS011;26812;42.662;23.352;2023-06-26T07:25:10;9.35;;;7.35;;
41061;SDS011;26812;42.662;23.352;2023-06-26T07:27:39;8.07;;;6.45;;
41061;SDS011;26812;42.662;23.352;2023-06-26T07:30:06;8.35;;;6.18;;
41061;SDS011;26812;42.662;23.352;2023-06-26T07:32:36;8.02;;;6.88;;
41061;SDS011;26812;42.662;23.352;2023-06-26T07:35:02;8.93;;;6.97;;
41061;SDS011;26812;42.662;23.352;2023-06-26T07:37:27;8.60;;;6.85;;
41061;SDS011;26812;42.662;23.352;2023-06-26T07:39:52;7.28;;;5.60;;
41061;SDS011;26812;42.662;23.352;2023-06-26T07:42:18;7.18;;;6.47;;
41061;SDS011;26812;42.662;23.352;2023-06-26T07:44:43;6.32;;;5.15;;
41061;SDS011;26812;42.662;23.352;2023-06-26T07:47:10;9.95;;;5.90;;
41061;SDS011;26812;42.662;23.352;2023-06-26T07:49:35;8.00;;;5.65;;
41061;SDS011;26812;42.662;23.352;2023-06-26T07:52:01;8.27;;;6.15;;
41061;SDS011;26812;42.662;23.352;2023-06-26T07:54:27;9.00;;;5.80;;
41061;SDS011;26812;42.662;23.352;2023-06-26T07:56:56;6.75;;;5.95;;
41061;SDS011;26812;42.662;23.352;2023-06-26T07:59:24;8.50;;;6.13;;
41061;SDS011;26812;42.662;23.352;2023-06-26T08:01:51;7.20;;;5.47;;
41061;SDS011;26812;42.662;23.352;2023-06-26T08:04:18;6.72;;;5.20;;
41061;SDS011;26812;42.662;23.352;2023-06-26T08:06:45;6.85;;;5.68;;
41061;SDS011;26812;42.662;23.352;2023-06-26T08:09:10;6.72;;;5.63;;
41061;SDS011;26812;42.662;23.352;2023-06-26T08:11:37;6.15;;;4.18;;
41061;SDS011;26812;42.662;23.352;2023-06-26T08:14:03;5.05;;;4.55;;
41061;SDS011;26812;42.662;23.352;2023-06-26T08:16:28;6.00;;;4.80;;
41061;SDS011;26812;42.662;23.352;2023-06-26T08:18:54;6.90;;;5.18;;
41061;SDS011;26812;42.662;23.352;2023-06-26T08:21:19;7.22;;;5.43;;
41061;SDS011;26812;42.662;23.352;2023-06-26T08:23:44;7.88;;;5.22;;
41061;SDS011;26812;42.662;23.352;2023-06-26T08:26:10;5.82;;;4.60;;
41061;SDS011;26812;42.662;23.352;2023-06-26T08:28:35;6.07;;;4.60;;
41061;SDS011;26812;42.662;23.352;2023-06-26T08:31:01;5.47;;;4.07;;
41061;SDS011;26812;42.662;23.352;2023-06-26T08:33:26;5.63;;;4.05;;
41061;SDS011;26812;42.662;23.352;2023-06-26T08:35:51;5.95;;;4.57;;
41061;SDS011;26812;42.662;23.352;2023-06-26T08:38:17;5.70;;;4.65;;
41061;SDS011;26812;42.662;23.352;2023-06-26T08:40:43;6.25;;;4.32;;
41061;SDS011;26812;42.662;23.352;2023-06-26T08:43:08;9.15;;;5.00;;
41061;SDS011;26812;42.662;23.352;2023-06-26T08:45:34;6.65;;;5.22;;
41061;SDS011;26812;42.662;23.352;2023-06-26T08:48:00;6.20;;;5.05;;
41061;SDS011;26812;42.662;23.352;2023-06-26T08:50:30;8.35;;;5.60;;
41061;SDS011;26812;42.662;23.352;2023-06-26T08:53:21;6.88;;;4.90;;
41061;SDS011;26812;42.662;23.352;2023-06-26T08:56:02;7.85;;;4.25;;
41061;SDS011;26812;42.662;23.352;2023-06-26T08:58:28;6.18;;;4.43;;
41061;SDS011;26812;42.662;23.352;2023-06-26T09:00:54;9.25;;;4.53;;
41061;SDS011;26812;42.662;23.352;2023-06-26T09:03:21;4.35;;;3.92;;
41061;SDS011;26812;42.662;23.352;2023-06-26T09:05:46;11.35;;;8.05;;
41061;SDS011;26812;42.662;23.352;2023-06-26T09:08:12;7.43;;;4.00;;
41061;SDS011;26812;42.662;23.352;2023-06-26T09:10:38;6.88;;;4.38;;
41061;SDS011;26812;42.662;23.352;2023-06-26T09:13:04;5.35;;;3.88;;
41061;SDS011;26812;42.662;23.352;2023-06-26T09:15:37;4.50;;;4.03;;
41061;SDS011;26812;42.662;23.352;2023-06-26T09:18:12;5.40;;;4.38;;
41061;SDS011;26812;42.662;23.352;2023-06-26T09:20:38;7.15;;;5.03;;
41061;SDS011;26812;42.662;23.352;2023-06-26T09:23:04;7.60;;;5.40;;
41061;SDS011;26812;42.662;23.352;2023-06-26T09:25:30;5.30;;;3.78;;
41061;SDS011;26812;42.662;23.352;2023-06-26T09:27:56;5.18;;;4.53;;
41061;SDS011;26812;42.662;23.352;2023-06-26T09:30:22;6.07;;;5.00;;
41061;SDS011;26812;42.662;23.352;2023-06-26T09:32:47;8.07;;;6.20;;
41061;SDS011;26812;42.662;23.352;2023-06-26T09:35:21;6.43;;;3.63;;
41061;SDS011;26812;42.662;23.352;2023-06-26T09:37:47;6.47;;;4.43;;
41061;SDS011;26812;42.662;23.352;2023-06-26T09:40:13;4.43;;;3.85;;
41061;SDS011;26812;42.662;23.352;2023-06-26T09:42:39;4.60;;;3.78;;
41061;SDS011;26812;42.662;23.352;2023-06-26T09:45:04;6.78;;;5.35;;
41061;SDS011;26812;42.662;23.352;2023-06-26T09:47:30;6.03;;;4.78;;
41061;SDS011;26812;42.662;23.352;2023-06-26T09:49:59;4.00;;;3.60;;
41061;SDS011;26812;42.662;23.352;2023-06-26T09:52:27;7.25;;;4.22;;
41061;SDS011;26812;42.662;23.352;2023-06-26T09:55:10;6.05;;;4.63;;
41061;SDS011;26812;42.662;23.352;2023-06-26T09:57:37;9.60;;;5.82;;
41061;SDS011;26812;42.662;23.352;2023-06-26T10:00:03;7.20;;;4.65;;
41061;SDS011;26812;42.662;23.352;2023-06-26T10:02:30;5.15;;;4.07;;
41061;SDS011;26812;42.662;23.352;2023-06-26T10:04:55;4.60;;;3.53;;
41061;SDS011;26812;42.662;23.352;2023-06-26T10:07:21;4.82;;;3.55;;
41061;SDS011;26812;42.662;23.352;2023-06-26T10:09:47;5.57;;;3.80;;
41061;SDS011;26812;42.662;23.352;2023-06-26T10:12:19;4.70;;;3.35;;
41061;SDS011;26812;42.662;23.352;2023-06-26T10:14:53;6.10;;;3.63;;
41061;SDS011;26812;42.662;23.352;2023-06-26T10:17:20;5.47;;;4.35;;
41061;SDS011;26812;42.662;23.352;2023-06-26T10:19:46;9.25;;;6.88;;
41061;SDS011;26812;42.662;23.352;2023-06-26T10:22:14;8.68;;;3.95;;
41061;SDS011;26812;42.662;23.352;2023-06-26T10:24:42;9.23;;;5.53;;
41061;SDS011;26812;42.662;23.352;2023-06-26T10:27:14;5.15;;;4.00;;
41061;SDS011;26812;42.662;23.352;2023-06-26T10:29:42;6.53;;;4.13;;
41061;SDS011;26812;42.662;23.352;2023-06-26T10:32:17;5.65;;;3.72;;
41061;SDS011;26812;42.662;23.352;2023-06-26T10:34:45;7.70;;;5.15;;
41061;SDS011;26812;42.662;23.352;2023-06-26T10:37:11;6.88;;;4.60;;
41061;SDS011;26812;42.662;23.352;2023-06-26T10:42:19;6.30;;;4.70;;
41061;SDS011;26812;42.662;23.352;2023-06-26T10:44:46;5.35;;;4.07;;
41061;SDS011;26812;42.662;23.352;2023-06-26T10:47:33;7.95;;;4.55;;
41061;SDS011;26812;42.662;23.352;2023-06-26T10:55:43;6.93;;;3.58;;
41061;SDS011;26812;42.662;23.352;2023-06-26T10:58:27;8.70;;;6.20;;
41061;SDS011;26812;42.662;23.352;2023-06-26T11:04:35;5.47;;;3.55;;
41061;SDS011;26812;42.662;23.352;2023-06-26T11:06:31;7.50;;;5.00;;
41061;SDS011;26812;42.662;23.352;2023-06-26T11:09:07;6.95;;;3.90;;
41061;SDS011;26812;42.662;23.352;2023-06-26T11:14:20;10.02;;;6.35;;
41061;SDS011;26812;42.662;23.352;2023-06-26T11:16:47;7.00;;;4.53;;
41061;SDS011;26812;42.662;23.352;2023-06-26T11:19:14;8.30;;;4.63;;
41061;SDS011;26812;42.662;23.352;2023-06-26T11:21:44;5.55;;;4.03;;
41061;SDS011;26812;42.662;23.352;2023-06-26T11:24:11;5.95;;;4.07;;
41061;SDS011;26812;42.662;23.352;2023-06-26T11:29:27;6.70;;;4.10;;
41061;SDS011;26812;42.662;23.352;2023-06-26T11:31:57;4.07;;;3.53;;
41061;SDS011;26812;42.662;23.352;2023-06-26T11:34:24;4.38;;;3.70;;
41061;SDS011;26812;42.662;23.352;2023-06-26T11:36:50;6.65;;;4.03;;
41061;SDS011;26812;42.662;23.352;2023-06-26T11:39:16;4.63;;;3.42;;
41061;SDS011;26812;42.662;23.352;2023-06-26T11:41:41;5.05;;;3.90;;
41061;SDS011;26812;42.662;23.352;2023-06-26T11:44:08;5.70;;;3.65;;
41061;SDS011;26812;42.662;23.352;2023-06-26T11:46:37;4.85;;;3.67;;
41061;SDS011;26812;42.662;23.352;2023-06-26T11:49:46;4.68;;;3.33;;
41061;SDS011;26812;42.662;23.352;2023-06-26T11:52:13;5.65;;;3.60;;
41061;SDS011;26812;42.662;23.352;2023-06-26T11:54:40;5.22;;;3.60;;
41061;SDS011;26812;42.662;23.352;2023-06-26T11:57:06;4.72;;;3.75;;
41061;SDS011;26812;42.662;23.352;2023-06-26T11:59:36;4.80;;;3.75;;
41061;SDS011;26812;42.662;23.352;2023-06-26T12:02:06;4.35;;;3.50;;
41061;SDS011;26812;42.662;23.352;2023-06-26T12:04:33;6.38;;;3.35;;
41061;SDS011;26812;42.662;23.352;2023-06-26T12:07:00;6.63;;;3.63;;
41061;SDS011;26812;42.662;23.352;2023-06-26T12:09:30;4.03;;;3.63;;
41061;SDS011;26812;42.662;23.352;2023-06-26T12:11:58;4.95;;;3.50;;
41061;SDS011;26812;42.662;23.352;2023-06-26T12:14:24;5.57;;;4.45;;
41061;SDS011;26812;42.662;23.352;2023-06-26T12:16:52;4.90;;;4.22;;
41061;SDS011;26812;42.662;23.352;2023-06-26T12:19:17;6.32;;;3.55;;
41061;SDS011;26812;42.662;23.352;2023-06-26T12:21:49;5.75;;;3.35;;
41061;SDS011;26812;42.662;23.352;2023-06-26T12:24:21;5.10;;;4.15;;
41061;SDS011;26812;42.662;23.352;2023-06-26T12:26:51;3.70;;;3.35;;
41061;SDS011;26812;42.662;23.352;2023-06-26T12:29:20;5.75;;;3.63;;
41061;SDS011;26812;42.662;23.352;2023-06-26T12:31:53;4.22;;;3.80;;
41061;SDS011;26812;42.662;23.352;2023-06-26T12:37:10;8.35;;;3.20;;
41061;SDS011;26812;42.662;23.352;2023-06-26T12:39:46;6.70;;;3.50;;
41061;SDS011;26812;42.662;23.352;2023-06-26T12:42:18;3.72;;;3.13;;
41061;SDS011;26812;42.662;23.352;2023-06-26T12:44:45;3.95;;;3.28;;
41061;SDS011;26812;42.662;23.352;2023-06-26T12:47:12;4.88;;;3.30;;
41061;SDS011;26812;42.662;23.352;2023-06-26T12:49:40;5.05;;;3.78;;
41061;SDS011;26812;42.662;23.352;2023-06-26T12:52:13;5.30;;;3.58;;
41061;SDS011;26812;42.662;23.352;2023-06-26T12:54:45;4.95;;;3.38;;
41061;SDS011;26812;42.662;23.352;2023-06-26T12:57:12;5.38;;;3.60;;
41061;SDS011;26812;42.662;23.352;2023-06-26T12:59:39;4.63;;;3.35;;
41061;SDS011;26812;42.662;23.352;2023-06-26T13:02:04;4.55;;;3.60;;
41061;SDS011;26812;42.662;23.352;2023-06-26T13:04:31;4.75;;;3.80;;
41061;SDS011;26812;42.662;23.352;2023-06-26T13:06:56;4.70;;;3.40;;
41061;SDS011;26812;42.662;23.352;2023-06-26T13:09:23;4.93;;;3.60;;
41061;SDS011;26812;42.662;23.352;2023-06-26T13:11:50;5.00;;;3.70;;
41061;SDS011;26812;42.662;23.352;2023-06-26T13:14:18;7.45;;;4.43;;
41061;SDS011;26812;42.662;23.352;2023-06-26T13:16:43;4.93;;;3.78;;
41061;SDS011;26812;42.662;23.352;2023-06-26T13:19:09;3.90;;;3.47;;
41061;SDS011;26812;42.662;23.352;2023-06-26T13:21:35;4.32;;;3.50;;
41061;SDS011;26812;42.662;23.352;2023-06-26T13:24:00;5.30;;;3.85;;
41061;SDS011;26812;42.662;23.352;2023-06-26T13:26:27;5.05;;;3.90;;
41061;SDS011;26812;42.662;23.352;2023-06-26T13:28:54;5.05;;;4.05;;
41061;SDS011;26812;42.662;23.352;2023-06-26T13:31:19;4.47;;;4.07;;
41061;SDS011;26812;42.662;23.352;2023-06-26T13:33:45;5.72;;;3.88;;
41061;SDS011;26812;42.662;23.352;2023-06-26T13:36:19;4.65;;;3.85;;
41061;SDS011;26812;42.662;23.352;2023-06-26T13:38:46;5.25;;;3.92;;
41061;SDS011;26812;42.662;23.352;2023-06-26T13:41:13;4.53;;;3.50;;
41061;SDS011;26812;42.662;23.352;2023-06-26T13:43:38;5.05;;;3.72;;
41061;SDS011;26812;42.662;23.352;2023-06-26T13:46:03;6.00;;;3.92;;
41061;SDS011;26812;42.662;23.352;2023-06-26T13:48:31;6.90;;;3.85;;
41061;SDS011;26812;42.662;23.352;2023-06-26T13:50:58;5.57;;;4.10;;
41061;SDS011;26812;42.662;23.352;2023-06-26T13:53:23;7.30;;;4.10;;
41061;SDS011;26812;42.662;23.352;2023-06-26T13:55:49;5.78;;;3.65;;
41061;SDS011;26812;42.662;23.352;2023-06-26T13:58:14;6.97;;;3.63;;
41061;SDS011;26812;42.662;23.352;2023-06-26T14:00:40;6.00;;;3.80;;
41061;SDS011;26812;42.662;23.352;2023-06-26T14:03:06;5.25;;;4.03;;
41061;SDS011;26812;42.662;23.352;2023-06-26T14:05:32;4.63;;;3.72;;
41061;SDS011;26812;42.662;23.352;2023-06-26T14:07:58;5.68;;;4.25;;
41061;SDS011;26812;42.662;23.352;2023-06-26T14:10:24;6.70;;;3.83;;
41061;SDS011;26812;42.662;23.352;2023-06-26T14:12:50;5.15;;;4.30;;
41061;SDS011;26812;42.662;23.352;2023-06-26T14:15:15;6.95;;;4.00;;
41061;SDS011;26812;42.662;23.352;2023-06-26T14:17:41;5.85;;;4.55;;
41061;SDS011;26812;42.662;23.352;2023-06-26T14:20:09;5.63;;;3.70;;
41061;SDS011;26812;42.662;23.352;2023-06-26T14:22:38;6.47;;;4.00;;
41061;SDS011;26812;42.662;23.352;2023-06-26T14:25:07;6.07;;;4.65;;
41061;SDS011;26812;42.662;23.352;2023-06-26T14:27:34;6.10;;;3.92;;
41061;SDS011;26812;42.662;23.352;2023-06-26T14:29:59;7.18;;;4.45;;
41061;SDS011;26812;42.662;23.352;2023-06-26T14:32:25;5.45;;;3.80;;
41061;SDS011;26812;42.662;23.352;2023-06-26T14:34:50;6.85;;;4.47;;
41061;SDS011;26812;42.662;23.352;2023-06-26T14:37:15;6.68;;;4.20;;
41061;SDS011;26812;42.662;23.352;2023-06-26T14:39:43;6.43;;;4.38;;
41061;SDS011;26812;42.662;23.352;2023-06-26T14:42:09;7.03;;;4.18;;
41061;SDS011;26812;42.662;23.352;2023-06-26T14:44:42;4.80;;;4.32;;
41061;SDS011;26812;42.662;23.352;2023-06-26T14:47:08;4.63;;;3.45;;
41061;SDS011;26812;42.662;23.352;2023-06-26T14:49:33;5.57;;;4.28;;
41061;SDS011;26812;42.662;23.352;2023-06-26T14:51:59;7.05;;;4.43;;
41061;SDS011;26812;42.662;23.352;2023-06-26T14:54:24;7.97;;;4.32;;